Time;durP1;ratioP1;P1;durP2;ratioP2;P2;SDS_P1;SDS_P2;PMS_P1;PMS_P2;Temp;Humidity;BMP_temperature;BMP_pressure;BME280_temperature;BME280_humidity;BME280_pressure;Samples;Min_cycle;Max_cycle;Signal;HPM_P1;HPM_P2
2022/07/25 00:00:32;;;;;;;;;;;23.70;64.80;;;23.14;59.93;96300.94;4234016;33;20155;-83
2022/07/25 00:03:01;;;;;;;;;;;23.70;64.90;;;23.13;60.02;96304.91;4210852;33;19953;-83
2022/07/25 00:05:30;;;;;;;;;;;23.70;65.00;;;23.13;60.40;96302.13;4233935;33;19910;-84
2022/07/25 00:07:58;;;;;;;;;;;23.70;65.00;;;23.14;60.36;96306.53;4209939;33;20131;-83
2022/07/25 00:10:27;;;;;;;;;;;23.70;65.00;;;23.11;60.34;96310.81;4210375;33;19910;-84
2022/07/25 00:12:55;;;;;;;;;;;23.70;65.00;;;23.13;60.23;96310.50;4257636;33;20139;-83
2022/07/25 00:15:24;;;;;;;;;;;23.70;65.00;;;23.13;60.21;96304.91;4235007;33;19902;-83
2022/07/25 00:17:54;;;;;;;;;;;23.70;65.00;;;23.13;60.32;96299.31;4233499;33;19902;-83
2022/07/25 00:20:22;;;;;;;;;;;23.70;65.00;;;23.12;59.93;96297.69;4234704;33;20420;-83
2022/07/25 00:22:51;;;;;;;;;;;23.70;65.00;;;23.10;59.86;96288.84;4234756;33;19909;-83
2022/07/25 00:25:19;;;;;;;;;;;23.60;64.90;;;23.12;60.01;96292.09;4234592;33;19981;-84
2022/07/25 00:27:48;;;;;;;;;;;23.70;65.00;;;23.11;59.95;96296.84;4209577;33;19902;-83
2022/07/25 00:30:16;;;;;;;;;;;23.60;64.80;;;23.11;60.42;96298.84;4233566;33;20055;-83
2022/07/25 00:32:45;;;;;;;;;;;23.70;65.00;;;23.11;59.94;96296.06;4234621;33;19910;-84
2022/07/25 00:35:15;;;;;;;;;;;23.70;65.00;;;23.11;60.32;96299.66;4233272;33;19902;-84
2022/07/25 00:37:44;;;;;;;;;;;23.70;65.00;;;23.11;60.03;96302.44;4233224;33;20205;-84
2022/07/25 00:40:13;;;;;;;;;;;23.60;65.00;;;23.10;60.39;96300.00;4234455;33;19910;-84
2022/07/25 00:42:41;;;;;;;;;;;23.60;64.90;;;23.10;60.47;96305.59;4233419;33;19922;-84
2022/07/25 00:45:11;;;;;;;;;;;23.60;65.00;;;23.10;60.14;96305.59;4233356;33;20125;-84
2022/07/25 00:47:40;;;;;;;;;;;23.60;65.00;;;23.10;60.38;96308.38;4233066;33;20033;-84
2022/07/25 00:50:09;;;;;;;;;;;23.60;64.90;;;23.09;59.97;96303.97;4233388;33;19907;-84
2022/07/25 00:52:39;;;;;;;;;;;23.60;65.00;;;23.10;60.45;96300.84;4209916;33;19932;-84
2022/07/25 00:55:08;;;;;;;;;;;23.60;65.00;;;23.10;60.33;96305.59;4209813;33;19910;-84
2022/07/25 00:57:37;;;;;;;;;;;23.60;65.00;;;23.09;60.00;96309.56;4234014;33;19984;-83
2022/07/25 01:00:07;;;;;;;;;;;23.60;65.00;;;23.09;60.38;96306.75;4233139;33;19903;-83
2022/07/25 01:02:35;;;;;;;;;;;23.60;65.10;;;23.09;60.13;96309.56;4234354;33;19943;-84
2022/07/25 01:05:04;;;;;;;;;;;23.60;65.10;;;23.09;60.41;96310.38;4233440;33;20024;-84
2022/07/25 01:07:33;;;;;;;;;;;23.60;65.10;;;23.08;60.44;96305.13;4209205;33;19921;-84
2022/07/25 01:10:03;;;;;;;;;;;23.60;65.10;;;23.09;60.07;96309.56;4209729;33;20119;-84
2022/07/25 01:12:32;;;;;;;;;;;23.60;65.10;;;23.08;60.39;96307.91;4233150;33;19903;-83
2022/07/25 01:15:00;;;;;;;;;;;23.60;65.20;;;23.07;60.10;96301.53;4233199;33;20088;-84
2022/07/25 01:17:29;;;;;;;;;;;23.60;65.20;;;23.08;60.08;96311.53;4209570;33;19910;-84
2022/07/25 01:19:57;;;;;;;;;;;23.60;65.10;;;23.07;60.06;96312.69;4232824;33;20262;-83
2022/07/25 01:22:27;;;;;;;;;;;23.60;65.20;;;23.07;60.46;96311.88;4234050;33;20141;-83
2022/07/25 01:24:56;;;;;;;;;;;23.60;65.20;;;23.06;60.13;96311.06;4233081;33;20099;-84
2022/07/25 01:27:24;;;;;;;;;;;23.60;65.30;;;23.07;60.55;96303.50;4232930;33;19990;-83
2022/07/25 01:29:53;;;;;;;;;;;23.60;65.20;;;23.06;60.39;96305.50;4232364;33;19909;-84
2022/07/25 01:32:22;;;;;;;;;;;23.60;65.20;;;23.05;60.54;96291.84;4256664;33;19942;-83
2022/07/25 01:34:50;;;;;;;;;;;23.60;65.20;;;23.05;60.35;96297.44;4232934;33;20234;-83
2022/07/25 01:37:19;;;;;;;;;;;23.60;65.20;;;23.06;60.60;96304.66;4233948;33;20003;-83
2022/07/25 01:39:49;;;;;;;;;;;23.60;65.20;;;23.05;60.57;96297.44;4233421;33;20138;-83
2022/07/25 01:42:17;;;;;;;;;;;23.60;65.10;;;23.03;60.57;96294.22;4232950;33;19902;-84
2022/07/25 01:44:46;;;;;;;;;;;23.60;65.20;;;23.04;60.14;96296.66;4233799;33;19902;-83
2022/07/25 01:47:16;;;;;;;;;;;23.60;65.20;;;23.04;60.27;96295.84;4232400;33;20122;-83
2022/07/25 01:49:44;;;;;;;;;;;23.60;65.20;;;23.03;60.40;96299.78;4232303;33;20057;-84
2022/07/25 01:52:13;;;;;;;;;;;23.60;65.20;;;23.03;60.19;96302.59;4233800;33;20230;-84
2022/07/25 01:54:41;;;;;;;;;;;23.60;65.20;;;23.04;60.47;96298.63;4233676;33;20009;-82
2022/07/25 01:57:11;;;;;;;;;;;23.60;65.20;;;23.02;60.37;96293.38;4233729;33;20209;-82
2022/07/25 01:59:40;;;;;;;;;;;23.60;65.30;;;23.02;60.25;96298.16;4208709;33;19986;-82
2022/07/25 02:02:09;;;;;;;;;;;23.50;65.30;;;23.02;60.27;96287.00;4233629;33;20453;-83
2022/07/25 02:04:37;;;;;;;;;;;23.60;65.20;;;23.02;60.57;96298.16;4232652;33;19925;-84
2022/07/25 02:07:06;;;;;;;;;;;23.60;65.20;;;23.01;60.21;96291.75;4233066;33;19902;-83
2022/07/25 02:09:34;;;;;;;;;;;23.60;65.30;;;23.01;60.27;96294.53;4232213;33;19902;-83
2022/07/25 02:12:03;;;;;;;;;;;23.60;65.20;;;23.01;60.18;96291.75;4233589;33;19909;-83
2022/07/25 02:14:33;;;;;;;;;;;23.50;65.40;;;23.01;60.55;96296.53;4232728;33;19902;-84
2022/07/25 02:17:02;;;;;;;;;;;23.50;65.30;;;23.01;60.18;96302.13;4209108;33;19902;-83
2022/07/25 02:19:31;;;;;;;;;;;23.50;65.30;;;22.99;60.14;96300.50;4233222;33;20109;-83
2022/07/25 02:21:59;;;;;;;;;;;23.50;65.30;;;22.99;60.23;96297.69;4233378;33;20138;-83
2022/07/25 02:24:28;;;;;;;;;;;23.50;65.20;;;22.98;60.49;96304.44;4232562;33;20111;-84
2022/07/25 02:26:56;;;;;;;;;;;23.50;65.20;;;22.98;60.32;96310.03;4232610;33;20009;-83
2022/07/25 02:29:25;;;;;;;;;;;23.50;65.20;;;22.98;60.24;96298.84;4232091;33;20038;-83
2022/07/25 02:31:55;;;;;;;;;;;23.50;65.30;;;22.98;60.41;96304.44;4209077;33;19902;-84
2022/07/25 02:34:23;;;;;;;;;;;23.50;65.20;;;22.97;60.23;96302.81;4232516;33;20249;-84
2022/07/25 02:36:52;;;;;;;;;;;23.50;65.20;;;22.98;60.40;96310.03;4233474;33;19911;-84
2022/07/25 02:39:21;;;;;;;;;;;23.50;65.20;;;22.96;60.16;96312.34;4231997;33;19902;-84
2022/07/25 02:41:49;;;;;;;;;;;23.50;65.20;;;22.96;60.40;96312.34;4208972;33;19910;-83
2022/07/25 02:44:18;;;;;;;;;;;23.50;65.20;;;22.96;60.18;96306.75;4233264;33;20236;-84
2022/07/25 02:46:46;;;;;;;;;;;23.50;66.00;;;22.96;60.25;96311.53;4232434;33;19903;-84
2022/07/25 02:49:16;;;;;;;;;;;23.50;65.10;;;22.95;60.37;96313.50;4208305;33;20083;-83
2022/07/25 02:51:45;;;;;;;;;;;23.50;65.10;;;22.95;59.86;96310.72;4208656;33;19903;-83
2022/07/25 02:54:13;;;;;;;;;;;23.50;65.10;;;22.93;60.04;96304.66;4232273;33;20133;-84
2022/07/25 02:56:42;;;;;;;;;;;23.50;65.00;;;22.94;59.85;96303.50;4232307;33;20036;-84
2022/07/25 02:59:10;;;;;;;;;;;23.50;64.90;;;22.93;60.02;96299.09;4209327;33;19903;-84
2022/07/25 03:01:39;;;;;;;;;;;23.50;64.90;;;22.93;60.21;96301.06;4235667;33;20078;-83
2022/07/25 03:04:07;;;;;;;;;;;23.50;64.90;;;22.94;60.27;96297.13;4234854;33;19909;-84
2022/07/25 03:06:37;;;;;;;;;;;23.50;64.90;;;22.93;60.27;96304.66;4234616;33;19910;-84
2022/07/25 03:09:06;;;;;;;;;;;23.50;64.90;;;22.93;60.22;96301.06;4210685;33;19902;-84
2022/07/25 03:11:34;;;;;;;;;;;23.50;64.90;;;22.92;59.91;96299.44;4234657;33;20141;-84
2022/07/25 03:14:03;;;;;;;;;;;23.50;64.90;;;22.91;59.95;96297.81;4234640;33;19904;-84
2022/07/25 03:16:32;;;;;;;;;;;23.50;64.90;;;22.91;60.15;96301.44;4234573;33;19902;-83
2022/07/25 03:19:00;;;;;;;;;;;23.50;64.90;;;22.92;59.89;96302.22;4233966;33;19947;-84
2022/07/25 03:21:29;;;;;;;;;;;23.50;65.00;;;22.92;60.18;96305.81;4210890;33;19902;-84
2022/07/25 03:23:59;;;;;;;;;;;23.50;64.90;;;22.93;60.17;96307.44;4210931;33;19903;-83
2022/07/25 03:26:27;;;;;;;;;;;23.50;64.90;;;22.92;59.95;96305.81;4235329;33;20245;-84
2022/07/25 03:28:56;;;;;;;;;;;23.50;64.90;;;22.91;59.82;96311.78;4234019;33;19911;-84
2022/07/25 03:31:24;;;;;;;;;;;23.50;64.80;;;22.91;59.66;96301.44;4234147;33;19909;-84
2022/07/25 03:33:53;;;;;;;;;;;23.50;64.70;;;22.92;59.86;96308.63;4210915;33;20174;-84
2022/07/25 03:36:21;;;;;;;;;;;23.50;64.70;;;22.93;60.03;96309.44;4235242;33;20071;-84
2022/07/25 03:38:50;;;;;;;;;;;23.50;64.70;;;22.93;59.93;96309.44;4233933;33;19907;-83
2022/07/25 03:41:20;;;;;;;;;;;23.50;64.70;;;22.93;60.03;96313.03;4234244;33;19966;-84
2022/07/25 03:43:49;;;;;;;;;;;23.50;64.70;;;22.95;59.75;96309.91;4210779;33;19946;-84
2022/07/25 03:46:17;;;;;;;;;;;23.50;64.70;;;22.95;59.93;96305.13;4210624;33;19910;-83
2022/07/25 03:48:46;;;;;;;;;;;23.50;64.80;;;22.96;59.61;96303.97;4210429;33;20094;-83
2022/07/25 03:51:14;;;;;;;;;;;23.50;64.60;;;22.96;59.56;96303.97;4233857;33;19924;-84
2022/07/25 03:56:27;;;;;;;;;;;23.50;64.50;;;22.96;59.74;96297.59;4230869;33;20099;-84
2022/07/25 03:58:55;;;;;;;;;;;23.50;64.50;;;22.96;59.45;96301.19;4234636;33;19909;-84
2022/07/25 04:01:24;;;;;;;;;;;23.50;64.50;;;22.96;59.80;96301.19;4233855;33;20290;-85
2022/07/25 04:03:52;;;;;;;;;;;23.50;64.40;;;22.97;59.53;96308.41;4210713;33;19985;-84
2022/07/25 04:06:22;;;;;;;;;;;23.50;64.50;;;22.97;59.62;96307.59;4233912;33;19910;-84
2022/07/25 04:08:50;;;;;;;;;;;23.50;64.50;;;22.99;59.66;96303.28;4234622;33;19970;-84
2022/07/25 04:11:19;;;;;;;;;;;23.50;64.60;;;23.01;59.68;96299.31;4233230;33;20310;-83
2022/07/25 04:13:49;;;;;;;;;;;23.60;64.60;;;23.03;59.92;96297.00;4210524;33;19903;-84
2022/07/25 04:16:17;;;;;;;;;;;23.60;64.50;;;23.06;59.59;96302.69;4233943;33;19902;-84
2022/07/25 04:18:46;;;;;;;;;;;23.60;64.50;;;23.07;59.74;96304.31;4209998;33;20028;-84
2022/07/25 04:21:14;;;;;;;;;;;23.60;64.60;;;23.09;59.59;96296.41;4233717;33;19972;-85
2022/07/25 04:23:43;;;;;;;;;;;23.60;64.50;;;23.11;59.48;96308.03;4233928;33;20378;-84
2022/07/25 04:26:12;;;;;;;;;;;23.70;64.40;;;23.13;60.01;96304.91;4233730;33;20237;-84
2022/07/25 04:28:40;;;;;;;;;;;23.70;64.70;;;23.13;60.02;96304.91;4234432;33;19909;-83
2022/07/25 04:31:10;;;;;;;;;;;23.70;64.40;;;23.12;59.87;96303.28;4234590;33;19909;-84
2022/07/25 04:33:39;;;;;;;;;;;23.70;64.30;;;23.11;59.53;96308.03;4233599;33;20210;-83
2022/07/25 04:36:08;;;;;;;;;;;23.70;64.50;;;23.11;59.92;96310.03;4234636;33;20297;-84
2022/07/25 04:38:37;;;;;;;;;;;23.70;64.50;;;23.10;59.49;96309.22;4209689;33;20170;-84
2022/07/25 04:41:06;;;;;;;;;;;23.70;64.50;;;23.10;59.75;96316.75;4233737;33;20141;-84
2022/07/25 04:43:34;;;;;;;;;;;23.70;64.40;;;23.09;59.82;96310.38;4234464;33;19906;-83
2022/07/25 04:46:03;;;;;;;;;;;23.60;64.40;;;23.09;60.03;96304.78;4210085;33;20263;-83
2022/07/25 04:48:33;;;;;;;;;;;23.60;64.50;;;23.09;59.98;96309.56;4209588;33;20172;-84
2022/07/25 04:51:02;;;;;;;;;;;23.60;64.60;;;23.10;59.81;96317.59;4233468;33;19903;-83
2022/07/25 04:53:30;;;;;;;;;;;23.60;64.40;;;23.11;59.94;96318.41;4234380;33;19928;-84
2022/07/25 04:55:59;;;;;;;;;;;23.60;64.80;;;23.12;59.81;96314.44;4233333;33;19902;-84
2022/07/25 04:58:28;;;;;;;;;;;23.70;64.80;;;23.13;60.26;96316.06;4233011;33;19902;-84
2022/07/25 05:00:57;;;;;;;;;;;23.70;64.80;;;23.15;59.75;96305.38;4233278;33;19914;-83
2022/07/25 05:03:25;;;;;;;;;;;23.70;64.80;;;23.18;59.79;96313.03;4233431;33;19902;-84
2022/07/25 05:05:55;;;;;;;;;;;23.70;64.40;;;23.23;59.93;96310.03;4234351;33;19902;-84
2022/07/25 05:08:24;;;;;;;;;;;23.80;64.40;;;23.28;59.94;96301.44;4233818;33;19903;-84
2022/07/25 05:10:53;;;;;;;;;;;23.80;64.30;;;23.32;59.72;96306.28;4209693;33;19910;-84
2022/07/25 05:13:21;;;;;;;;;;;23.90;64.30;;;23.35;59.38;96306.44;4209808;33;19942;-84
2022/07/25 05:15:50;;;;;;;;;;;23.90;64.00;;;23.40;59.46;96310.94;4234215;33;20206;-84
2022/07/25 05:18:18;;;;;;;;;;;23.90;63.90;;;23.41;59.29;96312.59;4204742;33;20109;-83
2022/07/25 05:20:47;;;;;;;;;;;24.00;63.90;;;23.43;59.05;96308.25;4204903;33;19903;-83
2022/07/25 05:23:17;;;;;;;;;;;24.00;63.90;;;23.47;59.05;96313.94;4208403;33;20019;-83
2022/07/25 05:25:46;;;;;;;;;;;24.00;63.80;;;23.46;58.93;96309.53;4233120;33;19902;-83
2022/07/25 05:28:14;;;;;;;;;;;24.00;63.70;;;23.48;59.40;96304.41;4233478;33;19909;-84
2022/07/25 05:30:43;;;;;;;;;;;24.00;63.70;;;23.49;58.97;96311.63;4233116;33;19909;-83
2022/07/25 05:33:11;;;;;;;;;;;24.00;63.70;;;23.50;59.41;96307.66;4234038;33;19902;-83
2022/07/25 05:35:40;;;;;;;;;;;24.10;63.80;;;23.53;59.07;96303.34;4233167;33;19902;-83
2022/07/25 05:38:09;;;;;;;;;;;24.10;63.70;;;23.54;59.07;96299.38;4232568;33;19950;-83
2022/07/25 05:40:39;;;;;;;;;;;24.10;63.70;;;23.55;59.09;96299.06;4233808;33;19909;-84
2022/07/25 05:43:07;;;;;;;;;;;24.10;63.60;;;23.58;58.78;96306.72;4232680;33;19902;-83
2022/07/25 05:45:36;;;;;;;;;;;24.10;63.50;;;23.60;58.66;96300.78;4233964;33;20131;-84
2022/07/25 05:48:05;;;;;;;;;;;24.20;63.40;;;23.62;59.01;96292.88;4232414;33;19909;-83
2022/07/25 05:50:34;;;;;;;;;;;24.20;63.40;;;23.65;58.69;96296.91;4232709;33;19909;-83
2022/07/25 05:53:02;;;;;;;;;;;24.20;63.40;;;23.69;58.70;96303.44;4209155;33;20214;-83
2022/07/25 05:55:31;;;;;;;;;;;24.20;63.00;;;23.71;58.50;96295.50;4232678;33;19961;-84
2022/07/25 05:58:01;;;;;;;;;;;24.20;63.00;;;23.74;58.39;96295.63;4232290;33;19962;-83
2022/07/25 06:00:29;;;;;;;;;;;24.30;63.10;;;23.78;58.30;96292.91;4232759;33;19934;-84
2022/07/25 06:02:59;;;;;;;;;;;24.30;63.00;;;23.81;58.71;96289.41;4233024;33;20097;-82
2022/07/25 06:05:30;;;;;;;;;;;24.40;62.90;;;23.84;58.27;96288.69;4233037;33;23212;-83
2022/07/25 06:07:58;;;;;;;;;;;24.40;63.50;;;23.87;58.18;96287.97;4233177;33;20213;-83
2022/07/25 06:10:27;;;;;;;;;;;24.40;62.40;;;23.89;57.91;96291.25;4232609;33;19902;-83
2022/07/25 06:12:55;;;;;;;;;;;24.50;62.70;;;23.92;57.95;96286.91;4233622;33;20062;-83
2022/07/25 06:15:26;;;;;;;;;;;24.50;62.60;;;23.94;57.89;96284.56;4232772;33;20112;-83
2022/07/25 06:17:54;;;;;;;;;;;24.50;62.60;;;23.94;57.97;96280.97;4233117;33;19909;-83
2022/07/25 06:20:23;;;;;;;;;;;24.50;62.60;;;23.94;58.34;96286.56;4233546;33;19902;-83
2022/07/25 06:22:51;;;;;;;;;;;24.50;62.50;;;23.94;58.29;96286.56;4232615;33;19909;-84
2022/07/25 06:25:20;;;;;;;;;;;24.50;62.50;;;23.95;58.13;96272.22;4233621;33;20073;-84
2022/07/25 06:27:49;;;;;;;;;;;24.50;62.60;;;23.97;58.23;96274.69;4233006;33;19926;-83
2022/07/25 06:30:17;;;;;;;;;;;24.60;62.40;;;23.98;57.85;96277.16;4233583;33;19909;-83
2022/07/25 06:32:47;;;;;;;;;;;24.60;62.40;;;24.01;57.75;96275.59;4233411;33;19902;-83
2022/07/25 06:35:16;;;;;;;;;;;24.60;62.30;;;24.03;57.73;96278.88;4211288;33;20239;-85
2022/07/25 06:37:45;;;;;;;;;;;24.60;62.20;;;24.06;57.79;96280.97;4234585;33;19949;-82
2022/07/25 06:40:13;;;;;;;;;;;24.60;63.10;;;24.08;57.65;96281.38;4235865;33;20139;-83
2022/07/25 06:42:43;;;;;;;;;;;24.60;62.20;;;24.09;57.74;96276.63;4235792;33;20014;-83
2022/07/25 06:45:12;;;;;;;;;;;24.70;62.30;;;24.10;57.88;96276.25;4235822;33;19908;-83
2022/07/25 06:47:44;;;;;;;;;;;24.70;62.20;;;24.11;57.65;96280.69;4234398;33;19941;-83
2022/07/25 06:50:17;;;;;;;;;;;24.70;62.10;;;24.14;57.47;96273.56;4234746;33;20260;-82
2022/07/25 06:52:45;;;;;;;;;;;24.70;62.10;;;24.15;57.47;96272.38;4234840;33;20133;-83
2022/07/25 06:55:14;;;;;;;;;;;24.70;62.10;;;24.16;57.64;96276.81;4235845;33;19909;-83
2022/07/25 06:57:43;;;;;;;;;;;24.70;62.00;;;24.19;57.67;96271.34;4234514;33;20151;-83
2022/07/25 07:00:13;;;;;;;;;;;24.70;62.00;;;24.20;57.58;96270.13;4234834;33;20131;-82
2022/07/25 07:02:52;;;;;;;;;;;24.70;62.00;;;24.20;57.44;96269.34;4235976;33;20095;-83
2022/07/25 07:05:22;;;;;;;;;;;24.70;61.90;;;24.21;57.65;96280.16;4235752;33;20210;-84
2022/07/25 07:07:50;;;;;;;;;;;24.70;61.90;;;24.25;57.23;96276.66;4234310;33;19925;-81
2022/07/25 07:10:20;;;;;;;;;;;24.80;61.80;;;24.27;57.22;96271.50;4234789;33;20128;-83
2022/07/25 07:12:49;;;;;;;;;;;24.80;61.80;;;24.29;57.15;96275.56;4234827;33;19909;-82
2022/07/25 07:15:17;;;;;;;;;;;24.80;61.80;;;24.31;57.11;96267.63;4234929;33;20480;-83
2022/07/25 07:17:46;;;;;;;;;;;24.80;61.70;;;24.34;57.04;96278.13;4258125;33;20381;-83
2022/07/25 07:20:15;;;;;;;;;;;24.80;61.60;;;24.36;57.36;96280.53;4235653;33;19909;-84
2022/07/25 07:22:46;;;;;;;;;;;24.80;62.50;;;24.36;56.93;96284.16;4234710;33;20244;-84
2022/07/25 07:25:14;;;;;;;;;;;24.90;61.60;;;24.39;56.98;96281.81;4235850;33;19903;-83
2022/07/25 07:27:43;;;;;;;;;;;24.90;61.60;;;24.39;57.24;96279.03;4235270;33;19953;-82
2022/07/25 07:30:13;;;;;;;;;;;24.90;61.60;;;24.39;57.27;96279.81;4234558;33;19902;-82
2022/07/25 07:32:42;;;;;;;;;;;24.90;61.60;;;24.39;57.04;96271.44;4258274;33;20240;-84
2022/07/25 07:35:11;;;;;;;;;;;24.90;61.50;;;24.38;56.72;96278.19;4235647;33;20140;-82
2022/07/25 07:37:39;;;;;;;;;;;24.90;61.50;;;24.35;57.14;96271.34;4235099;33;20119;-83
2022/07/25 07:40:11;;;;;;;;;;;24.90;61.60;;;24.34;57.31;96266.91;4211112;33;20343;-84
2022/07/25 07:42:40;;;;;;;;;;;24.90;61.60;;;24.34;57.50;96271.69;4234244;33;19909;-83
2022/07/25 07:45:13;;;;;;;;;;;24.80;61.60;;;24.32;57.19;96265.66;4210233;33;20116;-83
2022/07/25 07:47:42;;;;;;;;;;;24.80;61.70;;;24.33;57.45;96264.50;4210523;33;20084;-84
2022/07/25 07:50:11;;;;;;;;;;;24.80;61.70;;;24.33;57.14;96272.88;4234372;33;19910;-83
2022/07/25 07:52:39;;;;;;;;;;;24.80;61.70;;;24.33;57.34;96270.09;4235384;33;19906;-83
2022/07/25 07:57:58;;;;;;;;;;;24.80;61.80;;;24.33;57.34;96267.28;4233999;33;19909;-83
2022/07/25 08:00:29;;;;;;;;;;;24.80;61.80;;;24.33;57.34;96270.09;4229509;33;20250;-83
2022/07/25 08:02:58;;;;;;;;;;;24.80;61.80;;;24.35;57.37;96270.50;4182989;33;19910;-83
2022/07/25 08:05:29;;;;;;;;;;;24.90;61.90;;;24.35;57.44;96268.53;4206071;33;20463;-83
2022/07/25 08:07:57;;;;;;;;;;;24.90;61.90;;;24.37;57.44;96262.59;4206635;33;19902;-83
2022/07/25 08:10:29;;;;;;;;;;;24.90;61.80;;;24.40;57.55;96263.88;4206991;33;20020;-83
2022/07/25 08:12:58;;;;;;;;;;;24.90;61.90;;;24.39;57.33;96257.44;4206098;33;20152;-83
2022/07/25 08:15:27;;;;;;;;;;;24.90;61.90;;;24.40;57.47;96261.06;4205780;33;20115;-83
2022/07/25 08:17:55;;;;;;;;;;;24.90;61.90;;;24.39;57.28;96257.44;4206649;33;19909;-83
2022/07/25 08:20:24;;;;;;;;;;;24.90;61.80;;;24.39;57.47;96249.06;4205836;33;20116;-84
2022/07/25 08:22:55;;;;;;;;;;;24.90;61.90;;;24.38;57.49;96250.22;4205383;33;20166;-84
2022/07/25 08:25:23;;;;;;;;;;;24.90;61.80;;;24.37;57.57;96248.59;4205911;33;19951;-84
2022/07/25 08:27:53;;;;;;;;;;;24.90;61.90;;;24.35;57.50;96256.53;4206509;33;20054;-83
2022/07/25 08:30:22;;;;;;;;;;;24.90;62.00;;;24.35;57.69;96256.53;4205674;33;20013;-84
2022/07/25 08:32:51;;;;;;;;;;;24.90;62.00;;;24.34;57.45;96249.31;4205758;33;19902;-82
2022/07/25 08:35:21;;;;;;;;;;;24.90;62.00;;;24.34;57.58;96255.72;4205787;33;20125;-83
2022/07/25 08:37:49;;;;;;;;;;;24.90;62.00;;;24.34;57.59;96252.09;4182170;33;19902;-85
2022/07/25 08:40:20;;;;;;;;;;;24.80;61.90;;;24.33;57.78;96262.50;4206707;33;20081;-83
2022/07/25 08:42:49;;;;;;;;;;;24.90;62.00;;;24.32;57.48;96252.47;4205794;33;20218;-84
2022/07/25 08:45:19;;;;;;;;;;;24.90;62.10;;;24.32;57.61;96257.28;4206598;33;19903;-83
2022/07/25 08:47:48;;;;;;;;;;;24.80;62.00;;;24.31;57.87;96250.03;4182362;33;19911;-83
2022/07/25 08:50:18;;;;;;;;;;;24.80;62.00;;;24.29;57.88;96255.97;4182079;33;19903;-82
2022/07/25 08:52:48;;;;;;;;;;;24.80;62.00;;;24.29;57.69;96255.19;4206637;33;19902;-83
2022/07/25 08:55:18;;;;;;;;;;;24.80;62.00;;;24.27;57.84;96254.72;4182287;33;20125;-84
2022/07/25 08:57:48;;;;;;;;;;;24.80;62.00;;;24.23;57.84;96254.63;4181809;33;19910;-83
2022/07/25 09:00:20;;;;;;;;;;;24.80;62.10;;;24.20;58.08;96249.75;4181982;33;19983;-83
2022/07/25 09:02:52;;;;;;;;;;;24.80;62.30;;;24.21;57.80;96256.97;4182494;33;19909;-83
2022/07/25 09:05:21;;;;;;;;;;;24.80;62.30;;;24.20;57.81;96250.56;4205442;33;19907;-83
2022/07/25 09:07:50;;;;;;;;;;;24.70;62.40;;;24.20;57.93;96253.34;4204919;33;20489;-84
2022/07/25 09:10:20;;;;;;;;;;;24.70;62.40;;;24.21;57.69;96257.78;4206309;33;19903;-84
2022/07/25 09:12:53;;;;;;;;;;;24.80;62.40;;;24.21;57.95;96252.19;4206403;33;20126;-84
2022/07/25 09:15:28;;;;;;;;;;;24.70;62.30;;;24.21;57.62;96256.97;4205261;33;19982;-84
2022/07/25 09:17:57;;;;;;;;;;;24.80;62.30;;;24.21;57.79;96246.59;4205995;33;20130;-84
2022/07/25 09:20:36;;;;;;;;;;;24.70;62.30;;;24.21;57.97;96252.19;4182038;33;19903;-83
2022/07/25 09:23:04;;;;;;;;;;;24.80;62.30;;;24.21;58.10;96257.78;4205402;33;20121;-83
2022/07/25 09:25:33;;;;;;;;;;;24.70;62.30;;;24.20;57.81;96244.97;4188323;33;20013;-83
2022/07/25 09:28:13;;;;;;;;;;;24.80;62.30;;;24.22;57.69;96253.00;4209511;33;20045;-83
2022/07/25 09:30:54;;;;;;;;;;;24.80;62.30;;;24.21;57.89;96249.38;4209817;33;20141;-83
2022/07/25 09:33:23;;;;;;;;;;;24.80;62.30;;;24.22;57.78;96244.63;4209782;33;20133;-84
2022/07/25 09:35:52;;;;;;;;;;;24.80;62.40;;;24.22;58.00;96244.63;4233146;33;19938;-83
2022/07/25 09:38:21;;;;;;;;;;;24.80;62.30;;;24.21;57.51;96252.19;4256593;33;20104;-83
2022/07/25 09:40:57;;;;;;;;;;;24.70;62.30;;;24.21;57.89;96243.78;4233230;33;19906;-83
2022/07/25 09:43:36;;;;;;;;;;;24.80;62.30;;;24.20;57.68;96244.97;4234254;33;20321;-83
2022/07/25 09:46:06;;;;;;;;;;;24.70;62.30;;;24.19;57.98;96240.56;4233983;33;19902;-83
2022/07/25 09:48:35;;;;;;;;;;;24.80;62.30;;;24.19;58.15;96243.34;4232135;33;19909;-84
2022/07/25 09:51:04;;;;;;;;;;;24.80;62.30;;;24.19;58.15;96237.75;4232660;33;20087;-83
2022/07/25 09:53:33;;;;;;;;;;;24.70;62.30;;;24.18;58.05;96241.72;4232601;33;19908;-84
2022/07/25 09:56:01;;;;;;;;;;;24.70;62.30;;;24.18;58.19;96243.69;4232701;33;20061;-84
2022/07/25 09:58:30;;;;;;;;;;;24.70;62.30;;;24.16;58.08;96246.03;4233434;33;19955;-83
2022/07/25 10:01:07;;;;;;;;;;;24.70;62.30;;;24.16;57.79;96240.44;4233708;33;19903;-83
2022/07/25 10:03:45;;;;;;;;;;;24.70;62.30;;;24.16;57.90;96232.06;4232818;33;19909;-83
2022/07/25 10:06:21;;;;;;;;;;;24.70;62.30;;;24.16;57.85;96232.06;4232797;33;19902;-84
2022/07/25 10:08:49;;;;;;;;;;;24.70;62.30;;;24.14;57.87;96223.22;4232870;33;20524;-83
2022/07/25 10:11:22;;;;;;;;;;;24.70;62.30;;;24.13;57.70;96218.81;4232668;33;20099;-82
2022/07/25 10:13:51;;;;;;;;;;;24.70;62.40;;;24.12;58.16;96215.19;4232975;33;20159;-84
2022/07/25 10:16:22;;;;;;;;;;;24.70;63.20;;;24.11;57.89;96219.16;4209367;33;19963;-84
2022/07/25 10:18:52;;;;;;;;;;;24.70;62.40;;;24.11;57.87;96212.75;4233337;33;19960;-84
2022/07/25 10:21:21;;;;;;;;;;;24.70;62.40;;;24.10;58.08;96211.94;4232704;33;20159;-84
2022/07/25 10:24:01;;;;;;;;;;;24.70;62.40;;;24.10;58.26;96214.72;4233001;33;19902;-84
2022/07/25 10:26:30;;;;;;;;;;;24.70;62.40;;;24.10;57.80;96206.34;4209320;33;19929;-83
2022/07/25 10:29:00;;;;;;;;;;;24.70;62.40;;;24.09;57.92;96203.91;4232293;33;19950;-83
2022/07/25 10:31:37;;;;;;;;;;;24.70;62.40;;;24.10;57.90;96205.53;4209205;33;19902;-84
2022/07/25 10:34:07;;;;;;;;;;;24.70;62.50;;;24.09;57.85;96203.91;4232698;33;19902;-84
2022/07/25 10:36:43;;;;;;;;;;;24.60;62.30;;;24.09;57.97;96198.31;4232870;33;20173;-82
2022/07/25 10:39:13;;;;;;;;;;;24.60;62.30;;;24.07;58.13;96195.88;4232232;33;19909;-82
2022/07/25 10:41:43;;;;;;;;;;;24.60;62.30;;;24.06;58.00;96194.25;4232615;33;19903;-84
2022/07/25 10:44:13;;;;;;;;;;;24.60;62.40;;;24.06;57.98;96199.84;4233606;33;19902;-84
2022/07/25 10:46:44;;;;;;;;;;;24.60;62.40;;;24.05;58.20;96181.44;4232696;33;20012;-83
2022/07/25 10:49:19;;;;;;;;;;;24.60;62.40;;;24.05;58.01;96181.44;4232020;33;20088;-85
2022/07/25 10:51:55;;;;;;;;;;;24.60;62.40;;;24.04;58.00;96182.63;4232519;33;20052;-84
2022/07/25 10:54:24;;;;;;;;;;;24.60;62.40;;;24.04;58.04;96185.41;4233648;33;20097;-84
2022/07/25 10:56:54;;;;;;;;;;;24.60;62.40;;;24.03;57.79;96183.78;4232426;33;19909;-84
2022/07/25 10:59:28;;;;;;;;;;;24.60;62.40;;;24.02;58.10;96184.97;4233108;33;19903;-85
2022/07/25 11:01:58;;;;;;;;;;;24.60;62.40;;;24.02;58.03;96182.16;4232241;33;19902;-84
2022/07/25 11:04:27;;;;;;;;;;;24.60;62.40;;;24.00;58.17;96168.56;4233495;33;19924;-84
2022/07/25 11:06:56;;;;;;;;;;;24.60;62.50;;;24.01;58.04;96166.56;4232513;33;20094;-84
2022/07/25 11:09:26;;;;;;;;;;;24.60;62.50;;;24.01;58.11;96163.75;4233035;33;19946;-84
2022/07/25 11:11:56;;;;;;;;;;;24.60;62.50;;;24.00;58.20;96167.72;4233400;33;19909;-84
2022/07/25 11:14:26;;;;;;;;;;;24.60;62.50;;;24.00;58.02;96156.53;4231899;33;19996;-83
2022/07/25 11:16:55;;;;;;;;;;;24.60;62.50;;;23.99;58.39;96155.75;4232101;33;19906;-83
2022/07/25 11:19:26;;;;;;;;;;;24.60;62.60;;;23.99;58.31;96163.28;4232315;33;20062;-82
2022/07/25 11:21:56;;;;;;;;;;;24.60;62.50;;;23.99;58.16;96154.91;4234733;33;20159;-84
2022/07/25 11:24:34;;;;;;;;;;;24.60;62.50;;;23.99;58.07;96152.13;4235882;33;20214;-83
2022/07/25 11:27:03;;;;;;;;;;;24.60;62.40;;;23.98;58.28;96147.69;4235773;33;19993;-83
2022/07/25 11:29:33;;;;;;;;;;;24.60;62.60;;;23.98;57.91;96142.94;4234344;33;20385;-83
2022/07/25 11:32:03;;;;;;;;;;;24.60;62.40;;;23.97;57.96;96138.50;4235503;33;19909;-83